sensor_id;sensor_type;location;lat;lon;timestamp;temperature;humidity
254;DHT22;590;48.772;8.846;2023-08-24T00:01:48;19.70;73.70
254;DHT22;590;48.772;8.846;2023-08-24T00:04:16;19.60;73.60
254;DHT22;590;48.772;8.846;2023-08-24T00:06:44;19.60;73.60
254;DHT22;590;48.772;8.846;2023-08-24T00:09:12;19.60;74.00
254;DHT22;590;48.772;8.846;2023-08-24T00:11:40;19.50;73.50
254;DHT22;590;48.772;8.846;2023-08-24T00:14:08;19.50;73.90
254;DHT22;590;48.772;8.846;2023-08-24T00:16:37;19.50;74.80
254;DHT22;590;48.772;8.846;2023-08-24T00:19:06;19.50;75.20
254;DHT22;590;48.772;8.846;2023-08-24T00:21:34;19.50;74.50
254;DHT22;590;48.772;8.846;2023-08-24T00:24:03;19.50;74.60
254;DHT22;590;48.772;8.846;2023-08-24T00:26:33;19.40;74.30
254;DHT22;590;48.772;8.846;2023-08-24T00:29:05;19.40;75.00
254;DHT22;590;48.772;8.846;2023-08-24T00:31:33;19.30;75.10
254;DHT22;590;48.772;8.846;2023-08-24T00:34:01;19.30;75.80
254;DHT22;590;48.772;8.846;2023-08-24T00:36:31;19.20;76.10
254;DHT22;590;48.772;8.846;2023-08-24T00:38:59;19.20;76.20
254;DHT22;590;48.772;8.846;2023-08-24T00:41:27;19.20;76.50
254;DHT22;590;48.772;8.846;2023-08-24T00:43:55;19.20;76.80
254;DHT22;590;48.772;8.846;2023-08-24T00:46:24;19.20;75.80
254;DHT22;590;48.772;8.846;2023-08-24T00:48:54;19.30;75.10
254;DHT22;590;48.772;8.846;2023-08-24T00:51:24;19.30;74.90
254;DHT22;590;48.772;8.846;2023-08-24T00:53:54;19.20;75.80
254;DHT22;590;48.772;8.846;2023-08-24T00:56:24;19.20;76.00
254;DHT22;590;48.772;8.846;2023-08-24T00:58:54;19.10;76.60
254;DHT22;590;48.772;8.846;2023-08-24T01:01:22;19.10;77.10
254;DHT22;590;48.772;8.846;2023-08-24T01:03:51;19.00;77.50
254;DHT22;590;48.772;8.846;2023-08-24T01:06:19;19.00;77.70
254;DHT22;590;48.772;8.846;2023-08-24T01:08:47;19.00;77.90
254;DHT22;590;48.772;8.846;2023-08-24T01:11:25;19.00;78.60
254;DHT22;590;48.772;8.846;2023-08-24T01:14:02;19.00;79.40
254;DHT22;590;48.772;8.846;2023-08-24T01:16:34;19.00;79.20
254;DHT22;590;48.772;8.846;2023-08-24T01:19:21;19.00;79.30
254;DHT22;590;48.772;8.846;2023-08-24T01:21:54;18.90;79.40
254;DHT22;590;48.772;8.846;2023-08-24T01:24:31;18.90;78.40
254;DHT22;590;48.772;8.846;2023-08-24T01:27:05;18.90;79.00
254;DHT22;590;48.772;8.846;2023-08-24T01:29:34;18.90;79.10
254;DHT22;590;48.772;8.846;2023-08-24T01:32:02;18.90;78.80
254;DHT22;590;48.772;8.846;2023-08-24T01:34:30;18.90;79.00
254;DHT22;590;48.772;8.846;2023-08-24T01:36:58;18.90;80.00
254;DHT22;590;48.772;8.846;2023-08-24T01:39:29;18.90;80.60
254;DHT22;590;48.772;8.846;2023-08-24T01:42:02;19.00;79.20
254;DHT22;590;48.772;8.846;2023-08-24T01:44:35;19.00;78.80
254;DHT22;590;48.772;8.846;2023-08-24T01:47:06;19.00;78.10
254;DHT22;590;48.772;8.846;2023-08-24T01:49:39;19.00;77.60
254;DHT22;590;48.772;8.846;2023-08-24T01:52:09;19.00;77.00
254;DHT22;590;48.772;8.846;2023-08-24T01:54:38;19.00;77.00
254;DHT22;590;48.772;8.846;2023-08-24T01:57:06;19.00;77.00
254;DHT22;590;48.772;8.846;2023-08-24T01:59:36;19.00;77.00
254;DHT22;590;48.772;8.846;2023-08-24T02:02:04;19.00;77.20
254;DHT22;590;48.772;8.846;2023-08-24T02:04:32;19.00;77.60
254;DHT22;590;48.772;8.846;2023-08-24T02:07:00;19.00;77.90
254;DHT22;590;48.772;8.846;2023-08-24T02:09:28;19.00;77.50
254;DHT22;590;48.772;8.846;2023-08-24T02:11:57;19.00;77.60
254;DHT22;590;48.772;8.846;2023-08-24T02:14:25;18.90;77.70
254;DHT22;590;48.772;8.846;2023-08-24T02:16:54;18.90;78.20
254;DHT22;590;48.772;8.846;2023-08-24T02:19:22;18.80;78.40
254;DHT22;590;48.772;8.846;2023-08-24T02:21:50;18.80;78.70
254;DHT22;590;48.772;8.846;2023-08-24T02:24:18;18.80;79.30
254;DHT22;590;48.772;8.846;2023-08-24T02:26:46;18.70;79.00
254;DHT22;590;48.772;8.846;2023-08-24T02:29:14;18.60;78.80
254;DHT22;590;48.772;8.846;2023-08-24T02:31:42;18.60;79.00
254;DHT22;590;48.772;8.846;2023-08-24T02:34:12;18.60;79.90
254;DHT22;590;48.772;8.846;2023-08-24T02:36:40;18.70;80.00
254;DHT22;590;48.772;8.846;2023-08-24T02:39:08;18.70;80.10
254;DHT22;590;48.772;8.846;2023-08-24T02:41:36;18.80;80.60
254;DHT22;590;48.772;8.846;2023-08-24T02:44:05;18.80;80.90
254;DHT22;590;48.772;8.846;2023-08-24T02:46:33;18.80;80.60
254;DHT22;590;48.772;8.846;2023-08-24T02:49:01;18.80;80.60
254;DHT22;590;48.772;8.846;2023-08-24T02:51:30;18.80;79.70
254;DHT22;590;48.772;8.846;2023-08-24T02:53:59;18.70;80.40
254;DHT22;590;48.772;8.846;2023-08-24T02:56:27;18.70;80.50
254;DHT22;590;48.772;8.846;2023-08-24T02:58:55;18.60;80.20
254;DHT22;590;48.772;8.846;2023-08-24T03:01:23;18.60;80.40
254;DHT22;590;48.772;8.846;2023-08-24T03:03:51;18.60;80.40
254;DHT22;590;48.772;8.846;2023-08-24T03:06:19;18.60;81.30
254;DHT22;590;48.772;8.846;2023-08-24T03:08:48;18.60;80.40
254;DHT22;590;48.772;8.846;2023-08-24T03:11:16;18.60;81.50
254;DHT22;590;48.772;8.846;2023-08-24T03:13:44;18.60;81.60
254;DHT22;590;48.772;8.846;2023-08-24T03:16:12;18.50;82.80
254;DHT22;590;48.772;8.846;2023-08-24T03:18:41;18.50;83.60
254;DHT22;590;48.772;8.846;2023-08-24T03:21:09;18.50;83.10
254;DHT22;590;48.772;8.846;2023-08-24T03:23:37;18.50;85.90
254;DHT22;590;48.772;8.846;2023-08-24T03:26:07;18.60;85.00
254;DHT22;590;48.772;8.846;2023-08-24T03:28:35;18.50;84.10
254;DHT22;590;48.772;8.846;2023-08-24T03:31:03;18.50;83.90
254;DHT22;590;48.772;8.846;2023-08-24T03:33:34;18.40;83.90
254;DHT22;590;48.772;8.846;2023-08-24T03:36:02;18.40;84.50
254;DHT22;590;48.772;8.846;2023-08-24T03:38:31;18.40;84.80
254;DHT22;590;48.772;8.846;2023-08-24T03:41:00;18.40;85.00
254;DHT22;590;48.772;8.846;2023-08-24T03:43:33;18.40;84.30
254;DHT22;590;48.772;8.846;2023-08-24T03:46:01;18.50;84.80
254;DHT22;590;48.772;8.846;2023-08-24T03:48:31;18.50;85.40
254;DHT22;590;48.772;8.846;2023-08-24T03:50:59;18.50;85.30
254;DHT22;590;48.772;8.846;2023-08-24T03:53:27;18.50;86.50
254;DHT22;590;48.772;8.846;2023-08-24T03:55:55;18.40;86.90
254;DHT22;590;48.772;8.846;2023-08-24T03:58:23;18.50;86.40
254;DHT22;590;48.772;8.846;2023-08-24T04:00:53;18.50;86.70
254;DHT22;590;48.772;8.846;2023-08-24T04:03:22;18.50;86.60
254;DHT22;590;48.772;8.846;2023-08-24T04:05:50;18.50;85.40
254;DHT22;590;48.772;8.846;2023-08-24T04:08:18;18.50;85.80
254;DHT22;590;48.772;8.846;2023-08-24T04:10:46;18.50;85.40
254;DHT22;590;48.772;8.846;2023-08-24T04:13:14;18.60;84.30
254;DHT22;590;48.772;8.846;2023-08-24T04:15:42;18.60;83.90
254;DHT22;590;48.772;8.846;2023-08-24T04:18:11;18.60;83.50
254;DHT22;590;48.772;8.846;2023-08-24T04:20:40;18.60;85.00
254;DHT22;590;48.772;8.846;2023-08-24T04:23:08;18.70;85.50
254;DHT22;590;48.772;8.846;2023-08-24T04:25:39;18.60;85.10
254;DHT22;590;48.772;8.846;2023-08-24T04:28:16;18.70;84.60
254;DHT22;590;48.772;8.846;2023-08-24T04:30:49;18.60;84.70
254;DHT22;590;48.772;8.846;2023-08-24T04:33:19;18.60;85.10
254;DHT22;590;48.772;8.846;2023-08-24T04:35:48;18.70;85.50
254;DHT22;590;48.772;8.846;2023-08-24T04:38:17;18.70;85.50
254;DHT22;590;48.772;8.846;2023-08-24T04:40:50;18.70;84.70
254;DHT22;590;48.772;8.846;2023-08-24T04:43:19;18.80;83.80
254;DHT22;590;48.772;8.846;2023-08-24T04:45:48;18.80;83.70
254;DHT22;590;48.772;8.846;2023-08-24T04:48:21;18.80;83.10
254;DHT22;590;48.772;8.846;2023-08-24T04:50:49;18.80;83.60
254;DHT22;590;48.772;8.846;2023-08-24T04:53:18;18.80;84.80
254;DHT22;590;48.772;8.846;2023-08-24T04:55:46;18.80;85.10
254;DHT22;590;48.772;8.846;2023-08-24T04:58:14;18.80;84.60
254;DHT22;590;48.772;8.846;2023-08-24T05:00:43;18.80;84.40
254;DHT22;590;48.772;8.846;2023-08-24T05:03:11;18.80;84.30
254;DHT22;590;48.772;8.846;2023-08-24T05:05:41;19.00;83.60
254;DHT22;590;48.772;8.846;2023-08-24T05:08:09;19.00;82.00
254;DHT22;590;48.772;8.846;2023-08-24T05:10:39;19.10;81.80
254;DHT22;590;48.772;8.846;2023-08-24T05:13:07;19.10;81.00
254;DHT22;590;48.772;8.846;2023-08-24T05:15:35;19.10;80.80
254;DHT22;590;48.772;8.846;2023-08-24T05:18:04;19.10;80.80
254;DHT22;590;48.772;8.846;2023-08-24T05:20:32;19.20;80.90
254;DHT22;590;48.772;8.846;2023-08-24T05:23:01;19.20;81.10
254;DHT22;590;48.772;8.846;2023-08-24T05:25:30;19.20;80.90
254;DHT22;590;48.772;8.846;2023-08-24T05:27:58;19.20;81.50
254;DHT22;590;48.772;8.846;2023-08-24T05:30:26;19.20;81.40
254;DHT22;590;48.772;8.846;2023-08-24T05:32:56;19.20;81.30
254;DHT22;590;48.772;8.846;2023-08-24T05:35:24;19.30;80.90
254;DHT22;590;48.772;8.846;2023-08-24T05:37:54;19.40;81.00
254;DHT22;590;48.772;8.846;2023-08-24T05:40:23;19.50;81.10
254;DHT22;590;48.772;8.846;2023-08-24T05:42:51;19.60;80.10
254;DHT22;590;48.772;8.846;2023-08-24T05:45:20;19.70;78.90
254;DHT22;590;48.772;8.846;2023-08-24T05:47:52;19.90;79.10
254;DHT22;590;48.772;8.846;2023-08-24T05:50:20;20.00;79.30
254;DHT22;590;48.772;8.846;2023-08-24T05:52:48;20.20;78.90
254;DHT22;590;48.772;8.846;2023-08-24T05:55:17;20.40;77.30
254;DHT22;590;48.772;8.846;2023-08-24T05:57:46;20.40;74.60
254;DHT22;590;48.772;8.846;2023-08-24T06:00:16;20.50;74.30
254;DHT22;590;48.772;8.846;2023-08-24T06:02:44;20.60;74.90
254;DHT22;590;48.772;8.846;2023-08-24T06:05:12;20.60;75.20
254;DHT22;590;48.772;8.846;2023-08-24T06:07:40;20.70;75.10
254;DHT22;590;48.772;8.846;2023-08-24T06:10:09;20.70;75.10
254;DHT22;590;48.772;8.846;2023-08-24T06:12:37;20.70;74.50
254;DHT22;590;48.772;8.846;2023-08-24T06:15:07;20.70;74.50
254;DHT22;590;48.772;8.846;2023-08-24T06:17:37;20.70;74.30
254;DHT22;590;48.772;8.846;2023-08-24T06:20:06;20.70;74.40
254;DHT22;590;48.772;8.846;2023-08-24T06:22:37;20.70;75.40
254;DHT22;590;48.772;8.846;2023-08-24T06:25:06;20.80;75.50
254;DHT22;590;48.772;8.846;2023-08-24T06:27:35;20.80;75.50
254;DHT22;590;48.772;8.846;2023-08-24T06:30:04;20.80;75.60
254;DHT22;590;48.772;8.846;2023-08-24T06:32:34;20.90;75.90
254;DHT22;590;48.772;8.846;2023-08-24T06:35:04;20.90;75.80
254;DHT22;590;48.772;8.846;2023-08-24T06:37:33;20.90;76.40
254;DHT22;590;48.772;8.846;2023-08-24T06:40:01;20.90;76.30
254;DHT22;590;48.772;8.846;2023-08-24T06:42:31;21.00;76.30
254;DHT22;590;48.772;8.846;2023-08-24T06:44:59;21.00;76.40
254;DHT22;590;48.772;8.846;2023-08-24T06:47:27;21.00;76.00
254;DHT22;590;48.772;8.846;2023-08-24T06:49:56;21.10;75.30
254;DHT22;590;48.772;8.846;2023-08-24T06:52:24;21.10;74.60
254;DHT22;590;48.772;8.846;2023-08-24T06:54:53;21.20;73.30
254;DHT22;590;48.772;8.846;2023-08-24T06:57:23;21.30;73.00
254;DHT22;590;48.772;8.846;2023-08-24T06:59:51;21.50;72.70
254;DHT22;590;48.772;8.846;2023-08-24T07:02:19;21.70;71.60
254;DHT22;590;48.772;8.846;2023-08-24T07:04:48;21.90;69.50
254;DHT22;590;48.772;8.846;2023-08-24T07:07:17;22.20;70.10
254;DHT22;590;48.772;8.846;2023-08-24T07:09:45;22.80;68.20
254;DHT22;590;48.772;8.846;2023-08-24T07:12:13;23.30;61.40
254;DHT22;590;48.772;8.846;2023-08-24T07:14:41;23.50;56.00
254;DHT22;590;48.772;8.846;2023-08-24T07:17:09;23.60;53.20
254;DHT22;590;48.772;8.846;2023-08-24T07:19:37;23.60;50.70
254;DHT22;590;48.772;8.846;2023-08-24T07:22:05;23.90;52.90
254;DHT22;590;48.772;8.846;2023-08-24T07:24:36;24.40;53.30
254;DHT22;590;48.772;8.846;2023-08-24T07:27:11;25.20;48.20
254;DHT22;590;48.772;8.846;2023-08-24T07:29:40;25.90;44.00
254;DHT22;590;48.772;8.846;2023-08-24T07:32:08;26.50;38.20
254;DHT22;590;48.772;8.846;2023-08-24T07:34:36;27.00;32.90
254;DHT22;590;48.772;8.846;2023-08-24T07:37:04;27.50;29.30
254;DHT22;590;48.772;8.846;2023-08-24T07:39:32;27.80;26.70
254;DHT22;590;48.772;8.846;2023-08-24T07:42:02;28.20;25.10
254;DHT22;590;48.772;8.846;2023-08-24T07:44:30;28.40;22.60
254;DHT22;590;48.772;8.846;2023-08-24T07:46:58;28.80;22.60
254;DHT22;590;48.772;8.846;2023-08-24T07:49:26;29.00;18.80
254;DHT22;590;48.772;8.846;2023-08-24T07:51:54;29.30;16.70
254;DHT22;590;48.772;8.846;2023-08-24T07:54:24;29.40;14.70
254;DHT22;590;48.772;8.846;2023-08-24T07:56:52;29.70;15.90
254;DHT22;590;48.772;8.846;2023-08-24T07:59:21;29.90;13.00
254;DHT22;590;48.772;8.846;2023-08-24T08:01:49;30.20;12.30
254;DHT22;590;48.772;8.846;2023-08-24T08:04:17;30.40;11.30
254;DHT22;590;48.772;8.846;2023-08-24T08:06:45;30.70;11.30
254;DHT22;590;48.772;8.846;2023-08-24T08:09:14;31.00;10.60
254;DHT22;590;48.772;8.846;2023-08-24T08:11:43;31.20;9.50
254;DHT22;590;48.772;8.846;2023-08-24T08:14:12;31.40;10.10
254;DHT22;590;48.772;8.846;2023-08-24T08:16:41;31.60;9.30
254;DHT22;590;48.772;8.846;2023-08-24T08:19:10;31.80;7.80
254;DHT22;590;48.772;8.846;2023-08-24T08:21:38;31.70;7.80
254;DHT22;590;48.772;8.846;2023-08-24T08:24:06;31.80;8.70
254;DHT22;590;48.772;8.846;2023-08-24T08:26:34;31.90;6.90
254;DHT22;590;48.772;8.846;2023-08-24T08:29:02;31.90;6.80
254;DHT22;590;48.772;8.846;2023-08-24T08:31:30;32.00;7.50
254;DHT22;590;48.772;8.846;2023-08-24T08:34:00;32.10;6.50
254;DHT22;590;48.772;8.846;2023-08-24T08:36:28;32.30;6.00
254;DHT22;590;48.772;8.846;2023-08-24T08:38:56;32.20;4.80
254;DHT22;590;48.772;8.846;2023-08-24T08:41:27;32.10;5.10
254;DHT22;590;48.772;8.846;2023-08-24T08:43:59;32.20;4.80
254;DHT22;590;48.772;8.846;2023-08-24T08:46:27;32.30;5.00
254;DHT22;590;48.772;8.846;2023-08-24T08:48:56;32.50;5.40
254;DHT22;590;48.772;8.846;2023-08-24T08:51:27;32.70;4.60
254;DHT22;590;48.772;8.846;2023-08-24T08:53:55;32.70;4.40
254;DHT22;590;48.772;8.846;2023-08-24T08:56:23;32.90;5.00
254;DHT22;590;48.772;8.846;2023-08-24T08:58:52;32.90;4.20
254;DHT22;590;48.772;8.846;2023-08-24T09:01:22;32.70;4.00
254;DHT22;590;48.772;8.846;2023-08-24T09:03:51;32.80;4.80
254;DHT22;590;48.772;8.846;2023-08-24T09:06:21;32.50;3.90
254;DHT22;590;48.772;8.846;2023-08-24T09:08:52;32.40;4.40
254;DHT22;590;48.772;8.846;2023-08-24T09:11:20;32.40;4.60
254;DHT22;590;48.772;8.846;2023-08-24T09:13:48;32.10;3.80
254;DHT22;590;48.772;8.846;2023-08-24T09:16:16;32.10;4.70
254;DHT22;590;48.772;8.846;2023-08-24T09:18:46;32.20;5.50
254;DHT22;590;48.772;8.846;2023-08-24T09:21:15;32.20;4.90
254;DHT22;590;48.772;8.846;2023-08-24T09:23:44;32.30;5.30
254;DHT22;590;48.772;8.846;2023-08-24T09:26:14;32.30;6.00
254;DHT22;590;48.772;8.846;2023-08-24T09:28:43;32.30;5.60
254;DHT22;590;48.772;8.846;2023-08-24T09:31:12;32.30;5.70
254;DHT22;590;48.772;8.846;2023-08-24T09:33:43;32.30;6.60
254;DHT22;590;48.772;8.846;2023-08-24T09:36:14;32.50;6.60
254;DHT22;590;48.772;8.846;2023-08-24T09:38:46;32.50;7.30
254;DHT22;590;48.772;8.846;2023-08-24T09:41:17;32.40;5.60
254;DHT22;590;48.772;8.846;2023-08-24T09:43:45;32.00;6.80
254;DHT22;590;48.772;8.846;2023-08-24T09:46:18;31.60;7.20
254;DHT22;590;48.772;8.846;2023-08-24T09:48:53;31.30;7.70
254;DHT22;590;48.772;8.846;2023-08-24T09:51:23;31.10;9.20
254;DHT22;590;48.772;8.846;2023-08-24T09:53:57;31.20;10.10
254;DHT22;590;48.772;8.846;2023-08-24T09:56:29;31.20;9.40
254;DHT22;590;48.772;8.846;2023-08-24T09:59:00;31.10;9.80
254;DHT22;590;48.772;8.846;2023-08-24T10:01:31;31.20;9.20
254;DHT22;590;48.772;8.846;2023-08-24T10:03:59;31.10;10.00
254;DHT22;590;48.772;8.846;2023-08-24T10:06:28;31.10;9.80
254;DHT22;590;48.772;8.846;2023-08-24T10:09:01;31.20;9.70
254;DHT22;590;48.772;8.846;2023-08-24T10:11:34;31.30;9.90
254;DHT22;590;48.772;8.846;2023-08-24T10:14:07;31.30;10.40
254;DHT22;590;48.772;8.846;2023-08-24T10:16:39;31.30;10.10
254;DHT22;590;48.772;8.846;2023-08-24T10:19:08;31.30;10.00
254;DHT22;590;48.772;8.846;2023-08-24T10:21:37;31.30;9.90
254;DHT22;590;48.772;8.846;2023-08-24T10:24:06;31.30;9.80
254;DHT22;590;48.772;8.846;2023-08-24T10:26:39;31.40;9.90
254;DHT22;590;48.772;8.846;2023-08-24T10:29:07;31.40;10.00
254;DHT22;590;48.772;8.846;2023-08-24T10:31:36;31.60;10.40
254;DHT22;590;48.772;8.846;2023-08-24T10:34:06;31.60;10.00
254;DHT22;590;48.772;8.846;2023-08-24T10:36:34;31.70;9.50
254;DHT22;590;48.772;8.846;2023-08-24T10:39:03;31.80;8.20
254;DHT22;590;48.772;8.846;2023-08-24T10:41:51;31.80;9.00
254;DHT22;590;48.772;8.846;2023-08-24T10:44:20;31.90;9.90
254;DHT22;590;48.772;8.846;2023-08-24T10:47:11;32.00;9.40
254;DHT22;590;48.772;8.846;2023-08-24T10:49:40;32.00;8.70
254;DHT22;590;48.772;8.846;2023-08-24T10:52:22;32.20;9.90
254;DHT22;590;48.772;8.846;2023-08-24T10:54:52;32.20;8.80
254;DHT22;590;48.772;8.846;2023-08-24T10:57:22;32.30;8.90
254;DHT22;590;48.772;8.846;2023-08-24T11:00:03;32.30;7.20
254;DHT22;590;48.772;8.846;2023-08-24T11:02:43;32.20;8.20
254;DHT22;590;48.772;8.846;2023-08-24T11:05:17;32.20;8.00
254;DHT22;590;48.772;8.846;2023-08-24T11:07:50;32.30;7.80
254;DHT22;590;48.772;8.846;2023-08-24T11:10:19;32.40;8.20
254;DHT22;590;48.772;8.846;2023-08-24T11:13:11;32.50;7.80
254;DHT22;590;48.772;8.846;2023-08-24T11:15:41;32.50;7.80
254;DHT22;590;48.772;8.846;2023-08-24T11:18:23;32.60;8.70
254;DHT22;590;48.772;8.846;2023-08-24T11:20:55;32.90;7.60
254;DHT22;590;48.772;8.846;2023-08-24T11:23:24;33.20;7.80
254;DHT22;590;48.772;8.846;2023-08-24T11:25:54;33.40;6.80
254;DHT22;590;48.772;8.846;2023-08-24T11:28:26;33.50;6.00
254;DHT22;590;48.772;8.846;2023-08-24T11:30:55;33.60;6.80
254;DHT22;590;48.772;8.846;2023-08-24T11:33:28;33.80;7.00
254;DHT22;590;48.772;8.846;2023-08-24T11:35:57;34.00;6.80
254;DHT22;590;48.772;8.846;2023-08-24T11:38:35;34.10;5.80
254;DHT22;590;48.772;8.846;2023-08-24T11:41:15;34.20;5.10
254;DHT22;590;48.772;8.846;2023-08-24T11:43:45;34.20;4.40
254;DHT22;590;48.772;8.846;2023-08-24T11:46:16;34.10;4.50
254;DHT22;590;48.772;8.846;2023-08-24T11:48:44;33.90;4.60
254;DHT22;590;48.772;8.846;2023-08-24T11:51:13;33.70;4.60
254;DHT22;590;48.772;8.846;2023-08-24T11:53:52;33.50;5.50
254;DHT22;590;48.772;8.846;2023-08-24T11:56:20;33.20;5.20
254;DHT22;590;48.772;8.846;2023-08-24T11:58:50;33.10;6.50
254;DHT22;590;48.772;8.846;2023-08-24T12:01:18;33.20;7.20
254;DHT22;590;48.772;8.846;2023-08-24T12:03:47;33.30;6.00
254;DHT22;590;48.772;8.846;2023-08-24T12:06:16;33.40;6.50
254;DHT22;590;48.772;8.846;2023-08-24T12:08:46;33.40;5.80
254;DHT22;590;48.772;8.846;2023-08-24T12:11:15;33.30;6.00
254;DHT22;590;48.772;8.846;2023-08-24T12:13:45;33.10;6.60
254;DHT22;590;48.772;8.846;2023-08-24T12:16:15;32.90;6.50
254;DHT22;590;48.772;8.846;2023-08-24T12:18:49;33.00;6.70
254;DHT22;590;48.772;8.846;2023-08-24T12:21:17;33.10;6.90
254;DHT22;590;48.772;8.846;2023-08-24T12:23:55;33.20;6.80
254;DHT22;590;48.772;8.846;2023-08-24T12:26:23;33.30;6.50
254;DHT22;590;48.772;8.846;2023-08-24T12:28:52;33.40;6.10
254;DHT22;590;48.772;8.846;2023-08-24T12:31:26;33.40;6.70
254;DHT22;590;48.772;8.846;2023-08-24T12:33:59;33.50;6.60
254;DHT22;590;48.772;8.846;2023-08-24T12:36:27;33.50;6.00
254;DHT22;590;48.772;8.846;2023-08-24T12:38:55;33.50;6.00
254;DHT22;590;48.772;8.846;2023-08-24T12:41:23;33.60;6.40
254;DHT22;590;48.772;8.846;2023-08-24T12:43:51;33.70;5.90
254;DHT22;590;48.772;8.846;2023-08-24T12:46:21;33.60;6.20
254;DHT22;590;48.772;8.846;2023-08-24T12:48:49;33.60;6.40
254;DHT22;590;48.772;8.846;2023-08-24T12:51:22;33.70;6.30
254;DHT22;590;48.772;8.846;2023-08-24T12:53:50;33.90;5.90
254;DHT22;590;48.772;8.846;2023-08-24T12:56:19;34.00;5.20
254;DHT22;590;48.772;8.846;2023-08-24T12:58:47;33.90;5.60
254;DHT22;590;48.772;8.846;2023-08-24T13:01:15;33.90;5.80
254;DHT22;590;48.772;8.846;2023-08-24T13:03:45;34.10;4.80
254;DHT22;590;48.772;8.846;2023-08-24T13:06:13;34.10;5.00
254;DHT22;590;48.772;8.846;2023-08-24T13:08:52;34.10;5.60
254;DHT22;590;48.772;8.846;2023-08-24T13:11:21;34.40;4.50
254;DHT22;590;48.772;8.846;2023-08-24T13:13:49;34.60;2.90
254;DHT22;590;48.772;8.846;2023-08-24T13:16:18;34.70;3.70
254;DHT22;590;48.772;8.846;2023-08-24T13:18:47;34.80;2.20
254;DHT22;590;48.772;8.846;2023-08-24T13:21:15;35.00;2.90
254;DHT22;590;48.772;8.846;2023-08-24T13:23:45;35.30;2.30
254;DHT22;590;48.772;8.846;2023-08-24T13:26:18;35.40;1.40
254;DHT22;590;48.772;8.846;2023-08-24T13:28:47;35.60;1.60
254;DHT22;590;48.772;8.846;2023-08-24T13:31:15;35.70;1.10
254;DHT22;590;48.772;8.846;2023-08-24T13:33:44;35.70;1.40
254;DHT22;590;48.772;8.846;2023-08-24T13:36:14;35.80;2.00
254;DHT22;590;48.772;8.846;2023-08-24T13:38:43;35.80;1.80
254;DHT22;590;48.772;8.846;2023-08-24T13:41:11;35.80;1.80
254;DHT22;590;48.772;8.846;2023-08-24T13:43:39;35.80;1.00
254;DHT22;590;48.772;8.846;2023-08-24T13:46:09;35.80;1.00
254;DHT22;590;48.772;8.846;2023-08-24T13:48:37;35.70;1.00
254;DHT22;590;48.772;8.846;2023-08-24T13:51:06;35.60;1.00
254;DHT22;590;48.772;8.846;2023-08-24T13:53:36;35.60;1.20
254;DHT22;590;48.772;8.846;2023-08-24T13:56:05;35.50;1.00
254;DHT22;590;48.772;8.846;2023-08-24T13:58:33;35.40;1.00
254;DHT22;590;48.772;8.846;2023-08-24T14:01:01;35.40;1.20
254;DHT22;590;48.772;8.846;2023-08-24T14:03:30;35.30;1.90
254;DHT22;590;48.772;8.846;2023-08-24T14:06:01;35.20;1.80
254;DHT22;590;48.772;8.846;2023-08-24T14:08:30;35.10;2.30
254;DHT22;590;48.772;8.846;2023-08-24T14:10:59;35.00;2.80
254;DHT22;590;48.772;8.846;2023-08-24T14:13:27;34.80;2.90
254;DHT22;590;48.772;8.846;2023-08-24T14:15:56;34.60;3.10
254;DHT22;590;48.772;8.846;2023-08-24T14:18:24;34.50;3.10
254;DHT22;590;48.772;8.846;2023-08-24T14:20:52;34.30;3.90
254;DHT22;590;48.772;8.846;2023-08-24T14:23:20;34.20;4.40
254;DHT22;590;48.772;8.846;2023-08-24T14:25:48;34.10;4.70
254;DHT22;590;48.772;8.846;2023-08-24T14:28:20;33.90;4.60
254;DHT22;590;48.772;8.846;2023-08-24T14:30:49;33.70;5.30
254;DHT22;590;48.772;8.846;2023-08-24T14:33:17;33.50;5.90
254;DHT22;590;48.772;8.846;2023-08-24T14:35:52;33.40;5.80
254;DHT22;590;48.772;8.846;2023-08-24T14:38:20;33.20;6.30
254;DHT22;590;48.772;8.846;2023-08-24T14:40:48;33.00;9.90
254;DHT22;590;48.772;8.846;2023-08-24T14:43:18;32.70;14.10
254;DHT22;590;48.772;8.846;2023-08-24T14:45:46;32.10;20.10
254;DHT22;590;48.772;8.846;2023-08-24T14:48:14;31.30;23.50
254;DHT22;590;48.772;8.846;2023-08-24T14:50:43;30.40;29.10
254;DHT22;590;48.772;8.846;2023-08-24T14:53:11;29.70;36.60
254;DHT22;590;48.772;8.846;2023-08-24T14:55:39;29.10;42.20
254;DHT22;590;48.772;8.846;2023-08-24T14:58:07;28.50;50.10
254;DHT22;590;48.772;8.846;2023-08-24T15:00:37;28.20;52.70
254;DHT22;590;48.772;8.846;2023-08-24T15:03:05;27.90;54.50
254;DHT22;590;48.772;8.846;2023-08-24T15:05:38;27.50;60.10
254;DHT22;590;48.772;8.846;2023-08-24T15:08:07;27.30;62.60
254;DHT22;590;48.772;8.846;2023-08-24T15:10:35;27.00;66.20
254;DHT22;590;48.772;8.846;2023-08-24T15:13:03;26.80;67.30
254;DHT22;590;48.772;8.846;2023-08-24T15:15:34;26.70;67.50
254;DHT22;590;48.772;8.846;2023-08-24T15:18:04;26.60;68.70
254;DHT22;590;48.772;8.846;2023-08-24T15:20:32;26.50;68.90
254;DHT22;590;48.772;8.846;2023-08-24T15:23:00;26.60;70.10
254;DHT22;590;48.772;8.846;2023-08-24T15:25:28;26.70;70.00
254;DHT22;590;48.772;8.846;2023-08-24T15:27:56;26.80;69.30
254;DHT22;590;48.772;8.846;2023-08-24T15:30:24;26.80;67.80
254;DHT22;590;48.772;8.846;2023-08-24T15:32:53;26.80;68.00
254;DHT22;590;48.772;8.846;2023-08-24T15:35:22;26.70;67.60
254;DHT22;590;48.772;8.846;2023-08-24T15:37:50;26.70;67.60
254;DHT22;590;48.772;8.846;2023-08-24T15:40:18;26.60;68.00
254;DHT22;590;48.772;8.846;2023-08-24T15:42:47;26.60;68.80
254;DHT22;590;48.772;8.846;2023-08-24T15:45:15;26.60;69.80
254;DHT22;590;48.772;8.846;2023-08-24T15:47:43;26.50;70.00
254;DHT22;590;48.772;8.846;2023-08-24T15:50:11;26.50;70.10
254;DHT22;590;48.772;8.846;2023-08-24T15:52:41;26.50;70.00
254;DHT22;590;48.772;8.846;2023-08-24T15:55:09;26.60;71.10
254;DHT22;590;48.772;8.846;2023-08-24T15:57:37;26.50;71.00
254;DHT22;590;48.772;8.846;2023-08-24T16:00:07;26.50;72.00
254;DHT22;590;48.772;8.846;2023-08-24T16:02:37;26.50;71.90
254;DHT22;590;48.772;8.846;2023-08-24T16:05:06;26.60;71.70
254;DHT22;590;48.772;8.846;2023-08-24T16:07:34;26.60;70.80
254;DHT22;590;48.772;8.846;2023-08-24T16:10:04;26.60;70.30
254;DHT22;590;48.772;8.846;2023-08-24T16:12:34;26.50;68.30
254;DHT22;590;48.772;8.846;2023-08-24T16:15:02;26.50;69.70
254;DHT22;590;48.772;8.846;2023-08-24T16:17:30;26.60;69.90
254;DHT22;590;48.772;8.846;2023-08-24T16:20:02;26.70;70.90
254;DHT22;590;48.772;8.846;2023-08-24T16:22:34;26.80;69.80
254;DHT22;590;48.772;8.846;2023-08-24T16:25:04;26.80;67.90
254;DHT22;590;48.772;8.846;2023-08-24T16:27:33;26.80;70.30
254;DHT22;590;48.772;8.846;2023-08-24T16:30:02;26.80;66.40
254;DHT22;590;48.772;8.846;2023-08-24T16:32:30;26.80;67.40
254;DHT22;590;48.772;8.846;2023-08-24T16:34:59;26.80;67.50
254;DHT22;590;48.772;8.846;2023-08-24T16:37:27;26.70;67.60
254;DHT22;590;48.772;8.846;2023-08-24T16:39:58;26.50;68.40
254;DHT22;590;48.772;8.846;2023-08-24T16:42:27;26.40;68.20
254;DHT22;590;48.772;8.846;2023-08-24T16:44:56;26.20;65.10
254;DHT22;590;48.772;8.846;2023-08-24T16:47:24;26.10;66.30
254;DHT22;590;48.772;8.846;2023-08-24T16:49:52;26.20;68.20
254;DHT22;590;48.772;8.846;2023-08-24T16:52:20;26.20;66.90
254;DHT22;590;48.772;8.846;2023-08-24T16:54:50;26.30;63.80
254;DHT22;590;48.772;8.846;2023-08-24T16:57:18;26.30;63.40